x

West Santa Barbara 38 Nm West Of Santa Barbara, Ca (46054) Wave Buoy

2:50 - Sat 5th Sep 2015 All times are PDT. -7 hours from GMT.

  • Sig Wave height 7.9ft
  • Swell Direction
  • Peak Period 9s
  • Average Period 6s
  • Wind
    25mph, 29mph gusts
  • Sea Temp 65°f
  • Aire Temp 62°f
  • Sea Pressure 1010.8mb
  • West Santa Barbara  38 Nm West Of Santa Barbara, Ca
  • West Santa Barbara  38 Nm West Of Santa Barbara, Ca

More Historic Weather Station data

Upgrade to MSW Pro to gain access to the past 30 days of data for over 8000 Wavebouys and Weather Stations around the globe.

Join Pro

Comparision Forecast

View Surf forecast
   
sáb 09/05 2:50 8ft 9s 6s 25 29 mph 1010.8mb 65f 62f
1:50 8ft 8s 6s 25 31 mph 1010.8mb 65f 62f
12:50 8ft 7s 6s 25 31 mph 1011.1mb 66f 63f
vie 09/04 11:50 8ft 10s 6s 25 29 mph 1011.3mb 65f 62f
10:50 8ft 8s 6s 25 29 mph 1011.4mb 65f 63f
9:50 7.5ft 8s 6s 27 31 mph 1011.3mb 65f 63f
8:50 8ft 10s 6s 27 31 mph 1010.9mb 65f 63f
7:50 7.5ft 10s 6s 25 31 mph 1010.3mb 65f 63f
6:50 7ft 11s 6s 25 31 mph 1010.2mb 65f 63f
5:50 7ft 10s 6s 25 29 mph 1010.4mb 66f 63f
4:50 8ft 10s 6s 27 34 mph 1010.2mb 66f 63f
3:50 7ft 10s 6s 27 31 mph 1010.2mb 66f 63f
2:50 7ft 11s 6s 25 27 mph 1010.9mb 66f 63f
1:50 7ft 10s 7s 20 25 mph 1011.5mb 66f 63f
12:50 6.5ft 11s 7s 22 27 mph 1011.9mb 66f 63f
11:50 7ft 11s 7s 22 25 mph 1012.3mb 66f 63f
10:50 7ft 10s 7s 20 25 mph 1012.4mb 66f 63f
9:50 7ft 8s 7s 20 22 mph 1012.2mb 66f 63f
8:50 6ft 12s 7s 20 22 mph 1012mb 66f 63f
7:50 6ft 8s 6s 20 22 mph 1011.6mb 66f 63f
6:50 5.5ft 11s 6s 20 22 mph 1011mb 66f 63f
5:50 6ft 8s 6s 20 25 mph 1010.5mb 66f 63f
4:50 6ft 11s 7s 20 25 mph 1010.1mb 66f 63f
3:50 6ft 11s 6s 20 25 mph 1010.1mb 66f 63f
2:50 6.5ft 11s 6s 22 27 mph 1009.9mb 65f 63f
1:50 6ft 11s 6s 25 29 mph 1010.3mb 66f 63f
12:50 6.5ft 10s 6s 25 27 mph 1010.5mb 66f 63f
jue 09/03 11:50 6.5ft 12s 6s 25 29 mph 1010.4mb 66f 63f
10:50 7ft 11s 6s 25 27 mph 1010.4mb 66f 64f
9:50 6.5ft 10s 6s 25 29 mph 1010.2mb 66f 64f
8:50 6ft 11s 6s 22 27 mph 1010.2mb 66f 64f
7:50 6ft 11s 6s 25 29 mph 1009.6mb 66f 64f
6:50 5.5ft 11s 6s 25 27 mph 1009.5mb 67f 64f
5:50 6ft 11s 6s 22 27 mph 1009.7mb 67f 65f
4:50 5ft 11s 6s 20 25 mph 1010mb 67f 65f
3:50 5ft 11s 6s 20 25 mph 1010.3mb 67f 65f
2:50 5ft 11s 7s 20 22 mph 1010.8mb 67f 65f
1:50 5ft 11s 7s 18 20 mph 1011.4mb 67f 65f
12:50 5.5ft 11s 8s 13 16 mph 1012mb 67f 65f
11:50 5ft 11s 8s 9 11 mph 1012.7mb 67f 65f
10:50 6ft 11s 8s 11 13 mph 1013mb 66f 64f
9:50 5.5ft 11s 7s 16 18 mph 1013mb 66f 64f
8:50 6ft 11s 8s 16 18 mph 1012.8mb 66f 64f
7:50 6ft 11s 8s 16 18 mph 1012.5mb 66f 64f
6:50 5.5ft 12s 8s 18 20 mph 1012.1mb 66f 64f
5:50 5ft 10s 7s 16 20 mph 1011.8mb 66f 64f
4:50 6ft 12s 8s 16 20 mph 1011.6mb 66f 64f
3:50 6.5ft 11s 8s 18 20 mph 1012.1mb 66f 64f
2:50 7ft 11s 8s 13 18 mph 1011.9mb 66f 65f
1:50 7ft 11s 8s 13 18 mph 1012.2mb 67f 65f
12:50 6ft 11s 7s 18 22 mph 1012.4mb 67f 65f
mié 09/02 11:50 6.5ft 11s 7s 20 25 mph 1012.3mb 67f 65f
10:50 6.5ft 11s 7s 20 22 mph 1012.2mb 67f 65f
9:50 6ft 11s 7s 20 22 mph 1012.1mb 68f 65f
8:50 7ft 11s 7s 18 20 mph 1011.8mb 68f 65f
7:50 6.5ft 11s 7s 20 22 mph 1011.4mb 68f 65f
6:50 6ft 11s 7s 20 22 mph 1011.4mb 69f 65f
5:50 6ft 11s 7s 20 22 mph 1011.6mb 69f 65f
4:50 8ft 12s 7s 18 22 mph 1011.9mb 69f 65f
3:50 6ft 11s 7s 16 20 mph 1012.3mb 69f 65f
2:50 6ft 11s 7s 16 18 mph 1012.9mb 69f 65f
1:50 6ft 12s 8s 16 18 mph 1013.5mb 69f 65f
12:50 6.5ft 11s 8s 13 16 mph 1013.8mb 69f 65f
11:50 6.5ft 11s 8s 13 16 mph 1014.2mb 68f 66f
10:50 6.5ft 11s 8s 13 16 mph 1014.5mb 68f 66f
9:50 7ft 11s 8s 11 13 mph 1014.3mb 68f 65f
8:50 5.5ft 11s 7s 13 16 mph 1014.1mb 68f 65f
7:50 6.5ft 11s 8s 13 16 mph 1013.9mb 68f 65f
6:50 5.5ft 11s 8s 11 13 mph 1013.5mb 68f 65f
5:50 6ft 11s 8s 13 16 mph 1013mb 68f 65f
4:50 5ft 14s 8s 13 16 mph 1012.7mb 69f 65f
3:50 5ft 12s 7s 13 16 mph 1012.5mb 69f 65f
2:50 6ft 13s 8s 11
mph
1012.7mb 69f 65f
1:50 7ft 11s 8s 13 16 mph 1012.7mb 69f 65f
12:50 6.5ft 11s 7s 18 20 mph 1013mb 69f 64f
mar 09/01 11:50 7ft 11s 7s 18 22 mph 1013mb 69f 64f
10:50 7.5ft 14s 8s 20 25 mph 1012.6mb 69f 64f
9:50 6.5ft 11s 7s 18 20 mph 1012.6mb 69f 65f
8:50 7ft 11s 7s 18 20 mph 1012.4mb 69f 65f
7:50 7ft 12s 7s 18 22 mph 1011.8mb 68f 65f
6:50 7ft 11s 7s 18 22 mph 1011.3mb 69f 65f
5:50 6.5ft 11s 7s 18 20 mph 1011.2mb 69f 66f
4:50 6.5ft 14s 8s 16 18 mph 1011.3mb 69f 66f
3:50 6.5ft 11s 8s 13 16 mph 1011.8mb 69f 65f
2:50 7.5ft 14s 8s 13 16 mph 1012.3mb 69f 65f
1:50 6.5ft 12s 7s 13 16 mph 1012.7mb 69f 65f
12:50 7ft 12s 8s 13 16 mph 1012.8mb 68f 65f
11:50 7.5ft 15s 8s 13 16 mph 1013.1mb 68f 64f